Flight Track Log - Related Links

Times and Time Zones

All times are in EDT time to prevent confusion due to time zone crossing. See the RPA4911 flight status page for this flight to view local times or setup timezone preferences in your user account.

Time Position Orientation Groundspeed Altitude Reporting Facility
EDT Latitude Longitude Course Direction KTS MPH feet Rate Location/Type
Tue 06:07:49 AM 42.7672 -73.8061 200° South 170 196 1,100  Level Boston Center
Tue 06:08:49 AM 42.8192 -73.8269 344° North 211 243 3,200 2,331 Climbing Boston Center
Tue 06:09:50 AM 42.7850 -73.8914 234° Southwest 227 261 5,800 2,382 Climbing Boston Center
Tue 06:10:00 AM 42.4594 -73.8551 196° South  Level Estimated
Tue 06:11:00 AM 42.3629 -73.8727 197° South  Level Estimated
Tue 06:11:05 AM 42.7242 -73.9239 201° Southwest 231 266 8,600  Level Boston Center
Tue 06:12:00 AM 42.2876 -73.9564 219° Southwest  Level FlightAware
Tue 06:12:05 AM 42.6611 -73.9592 202° Southwest 237 273 10,000  Level Boston Center
Tue 06:13:00 AM 42.1907 -73.9696 200° South  Level Estimated
Tue 06:13:05 AM 42.5856 -73.9967 200° South 262 302 10,900  Level Boston Center
Tue 06:14:05 AM 42.4942 -73.9889 176° South 293 337 12,300 1,350 Climbing Boston Center
Tue 06:15:05 AM 42.4192 -73.9728 171° South 313 360 13,600 850 Climbing Boston Center
Tue 06:16:05 AM 42.3194 -73.9536 172° South 313 360 14,000 200 Climbing Boston Center
Tue 06:17:05 AM 42.2378 -73.9739 190° South 324 373 14,000  Level Boston Center
Tue 06:18:05 AM 42.1453 -74.0444 209° Southwest 339 390 14,000  Level Boston Center
Tue 06:19:05 AM 42.0714 -74.1042 211° Southwest 350 403 14,000 -200 Level Boston Center
Tue 06:20:05 AM 41.9728 -74.1492 199° South 350 403 13,600 -650 Descending Boston Center
Tue 06:21:05 AM 41.8889 -74.1886 199° South 340 391 12,700 -1,000 Descending Boston Center
Tue 06:22:05 AM 41.8028 -74.2225 196° South 319 367 11,600 -1,000 Descending Boston Center
Tue 06:23:05 AM 41.7231 -74.2592 199° South 313 360 10,700 -1,000 Descending Boston Center
Tue 06:24:05 AM 41.6453 -74.2903 197° South 301 346 9,600 -1,000 Descending Boston Center
Tue 06:25:05 AM 41.5803 -74.3189 198° South 287 330 8,700 -1,000 Descending Boston Center
Tue 06:26:05 AM 41.5006 -74.3525 198° South 287 330 7,600 -539 Descending Boston Center
Tue 06:28:03 AM 41.3667 -74.4167 200° South 257 296 7,100 -196 Descending New TRACON
Tue 06:29:09 AM 41.2833 -74.4333 189° South 265 305 7,000 -714 Descending New TRACON
Tue 06:30:09 AM 41.2333 -74.3833 143° Southeast 267 307 5,600 -912 Descending New TRACON
Tue 06:31:14 AM 41.1667 -74.3333 151° Southeast 249 287 5,100 -252 Descending New TRACON
Tue 06:32:08 AM 41.1000 -74.2833 151° Southeast 256 295 5,100  Level New TRACON
Tue 06:33:14 AM 41.0333 -74.2167 143° Southeast 266 306 5,100 -347 Level New TRACON
Tue 06:34:09 AM 40.9833 -74.1833 153° Southeast 264 304 4,400 -496 Descending New TRACON
Tue 06:35:15 AM 40.9167 -74.1333 150° Southeast 234 269 4,100 -524 Descending New TRACON
Tue 06:36:15 AM 40.8667 -74.0833 143° Southeast 222 255 3,300 -650 Descending New TRACON
Tue 06:37:15 AM 40.8167 -74.0833 180° South 195 224 2,800 -500 Descending New TRACON

Login

Don't have an account? Register now (free) for customized features, flight alerts, and more!